Time;durP1;ratioP1;P1;durP2;ratioP2;P2;SDS_P1;SDS_P2;PMS_P1;PMS_P2;Temp;Humidity;BMP_temperature;BMP_pressure;BME280_temperature;BME280_humidity;BME280_pressure;Samples;Min_cycle;Max_cycle;Signal;HPM_P1;HPM_P2
2022/01/12 00:00:23;;;;;;;46.15;17.58;;;;;;;;;;6210442;28;20061;-70
2022/01/12 00:03:45;;;;;;;40.65;15.80;;;;;;;;;;6210437;28;20049;-70
2022/01/12 00:06:46;;;;;;;43.42;15.25;;;;;;;;;;6210424;28;20049;-70
2022/01/12 00:09:46;;;;;;;40.88;14.88;;;;;;;;;;6210969;28;20148;-63
2022/01/12 00:12:47;;;;;;;44.10;16.23;;;;;;;;;;6212769;28;20046;-67
2022/01/12 00:15:48;;;;;;;42.17;16.00;;;;;;;;;;6208802;28;20052;-61
2022/01/12 00:18:49;;;;;;;42.70;15.88;;;;;;;;;;6210613;28;20038;-67
2022/01/12 00:21:49;;;;;;;46.40;14.23;;;;;;;;;;6210632;28;20046;-68
2022/01/12 00:34:32;;;;;;;41.70;14.75;;;;;;;;;;6209815;28;20046;-64
2022/01/12 00:37:33;;;;;;;37.55;14.73;;;;;;;;;;6206790;28;20042;-63
2022/01/12 00:40:39;;;;;;;41.80;15.25;;;;;;;;;;6210423;28;20133;-67
2022/01/12 00:43:42;;;;;;;43.58;14.13;;;;;;;;;;6210602;28;20505;-63
2022/01/12 00:46:42;;;;;;;40.75;15.07;;;;;;;;;;6210951;28;20042;-70
2022/01/12 00:49:43;;;;;;;37.88;14.18;;;;;;;;;;6211167;28;20056;-71
2022/01/12 00:52:44;;;;;;;38.88;14.38;;;;;;;;;;6215659;28;20061;-69
2022/01/12 00:55:44;;;;;;;41.05;14.40;;;;;;;;;;6215640;28;20488;-70
2022/01/12 00:58:45;;;;;;;44.88;15.75;;;;;;;;;;6215839;28;20089;-70
2022/01/12 01:01:46;;;;;;;42.92;16.30;;;;;;;;;;6213439;28;20505;-67
2022/01/12 01:04:47;;;;;;;46.92;15.98;;;;;;;;;;6210066;28;20054;-70
2022/01/12 01:07:48;;;;;;;42.72;16.92;;;;;;;;;;6210177;28;20112;-68
2022/01/12 01:10:51;;;;;;;49.25;17.08;;;;;;;;;;6209934;28;20049;-67
2022/01/12 01:14:00;;;;;;;53.72;18.40;;;;;;;;;;6210334;28;20069;-65
2022/01/12 01:25:28;;;;;;;48.47;19.20;;;;;;;;;;6209579;28;20567;-69
2022/01/12 01:27:04;;;;;;;51.75;18.70;;;;;;;;;;6209029;28;20038;-70
2022/01/12 01:30:05;;;;;;;53.30;19.75;;;;;;;;;;6209676;28;20531;-65
2022/01/12 01:33:08;;;;;;;53.60;19.17;;;;;;;;;;6210089;28;20448;-68
2022/01/12 01:36:09;;;;;;;56.33;20.13;;;;;;;;;;6210305;28;20053;-67
2022/01/12 01:39:12;;;;;;;53.50;20.35;;;;;;;;;;6212127;28;20572;-70
2022/01/12 01:42:19;;;;;;;54.25;18.83;;;;;;;;;;6210124;28;20519;-66
2022/01/12 01:55:26;;;;;;;60.90;20.77;;;;;;;;;;6213954;28;20050;-65
2022/01/12 01:58:26;;;;;;;62.00;21.80;;;;;;;;;;6214209;28;20108;-63
2022/01/12 02:01:27;;;;;;;55.35;19.67;;;;;;;;;;6214426;28;20576;-70
2022/01/12 02:04:28;;;;;;;57.53;21.20;;;;;;;;;;6212523;28;20172;-63
2022/01/12 02:07:28;;;;;;;62.63;21.88;;;;;;;;;;6217625;28;20050;-66
2022/01/12 02:10:39;;;;;;;54.92;20.80;;;;;;;;;;6212905;28;20053;-68
2022/01/12 02:13:45;;;;;;;56.67;20.92;;;;;;;;;;6213527;28;20060;-67
2022/01/12 02:16:57;;;;;;;58.28;20.77;;;;;;;;;;6214048;28;20053;-70
2022/01/12 02:36:24;;;;;;;50.60;18.90;;;;;;;;;;6213125;28;20517;-66
2022/01/12 02:39:51;;;;;;;50.10;18.52;;;;;;;;;;6210324;28;20045;-65
2022/01/12 02:43:11;;;;;;;38.42;13.90;;;;;;;;;;6211906;28;20105;-69
2022/01/12 02:56:18;;;;;;;36.33;13.60;;;;;;;;;;6211173;28;20405;-65
2022/01/12 02:59:19;;;;;;;34.03;12.55;;;;;;;;;;6213009;28;20056;-71
2022/01/12 03:02:26;;;;;;;33.08;15.00;;;;;;;;;;6212205;28;20042;-63
2022/01/12 03:05:46;;;;;;;27.67;12.45;;;;;;;;;;6212675;28;20058;-66
2022/01/12 03:08:48;;;;;;;29.63;12.00;;;;;;;;;;6213976;28;20078;-64
2022/01/12 03:11:48;;;;;;;29.95;12.55;;;;;;;;;;6211195;28;20140;-69
2022/01/12 03:14:49;;;;;;;33.47;12.13;;;;;;;;;;6212777;28;20451;-70
2022/01/12 03:17:50;;;;;;;32.05;13.02;;;;;;;;;;6211421;28;20083;-68
2022/01/12 03:20:51;;;;;;;29.55;12.27;;;;;;;;;;6211096;28;20120;-68
2022/01/12 03:23:52;;;;;;;33.83;12.65;;;;;;;;;;6212076;28;20070;-65
2022/01/12 03:26:52;;;;;;;33.53;12.98;;;;;;;;;;6212224;28;20493;-65
2022/01/12 03:29:56;;;;;;;36.97;15.23;;;;;;;;;;6210340;28;20128;-62
2022/01/12 03:39:27;;;;;;;36.17;14.10;;;;;;;;;;6211108;28;20065;-67
2022/01/12 03:42:28;;;;;;;34.47;14.40;;;;;;;;;;6210187;28;20552;-66
2022/01/12 03:45:28;;;;;;;33.42;13.80;;;;;;;;;;6211508;28;20148;-60
2022/01/12 03:48:29;;;;;;;33.58;13.50;;;;;;;;;;6213259;28;20050;-61
2022/01/12 03:51:30;;;;;;;40.10;13.93;;;;;;;;;;6211141;28;20042;-66
2022/01/12 03:54:30;;;;;;;32.72;12.63;;;;;;;;;;6211874;28;20037;-70
2022/01/12 03:57:31;;;;;;;31.33;13.43;;;;;;;;;;6213420;28;20523;-69
2022/01/12 04:00:32;;;;;;;41.22;14.77;;;;;;;;;;6214144;28;20095;-66
2022/01/12 04:03:43;;;;;;;37.17;14.98;;;;;;;;;;6211108;28;20522;-62
2022/01/12 04:10:04;;;;;;;36.95;13.93;;;;;;;;;;6210280;28;20038;-68
2022/01/12 04:13:05;;;;;;;36.50;13.85;;;;;;;;;;6210485;28;20501;-69
2022/01/12 04:16:06;;;;;;;43.08;16.08;;;;;;;;;;6209815;28;20053;-69
2022/01/12 04:19:07;;;;;;;42.72;16.45;;;;;;;;;;6210410;28;20038;-70
2022/01/12 04:25:39;;;;;;;35.42;13.55;;;;;;;;;;6203264;28;20046;-64
2022/01/12 04:28:42;;;;;;;34.30;14.57;;;;;;;;;;6210022;28;20095;-67
2022/01/12 04:31:43;;;;;;;39.08;15.30;;;;;;;;;;6212754;28;20099;-64
2022/01/12 04:34:44;;;;;;;42.30;15.45;;;;;;;;;;6210428;28;20042;-67
2022/01/12 04:37:44;;;;;;;39.55;13.70;;;;;;;;;;6210010;28;20125;-69
2022/01/12 04:40:46;;;;;;;44.58;15.45;;;;;;;;;;6210073;28;20512;-66
2022/01/12 04:43:48;;;;;;;41.03;15.38;;;;;;;;;;6208587;28;20132;-63
2022/01/12 04:46:52;;;;;;;41.08;15.85;;;;;;;;;;6211482;28;20072;-70
2022/01/12 04:49:55;;;;;;;61.42;21.25;;;;;;;;;;6211593;28;20054;-69
2022/01/12 04:52:56;;;;;;;62.47;23.02;;;;;;;;;;6213470;28;20556;-61
2022/01/12 04:55:58;;;;;;;63.00;20.42;;;;;;;;;;6215718;28;20050;-71
2022/01/12 04:59:01;;;;;;;45.50;16.50;;;;;;;;;;6215089;28;20065;-67
2022/01/12 05:06:18;;;;;;;49.88;17.20;;;;;;;;;;6212040;28;20050;-68
2022/01/12 05:15:08;;;;;;;49.88;16.48;;;;;;;;;;6208623;28;20100;-62
2022/01/12 05:18:08;;;;;;;80.18;23.30;;;;;;;;;;6208957;28;20046;-71
2022/01/12 05:21:10;;;;;;;74.22;21.25;;;;;;;;;;6211194;28;20438;-61
2022/01/12 05:24:11;;;;;;;42.03;15.23;;;;;;;;;;6210885;28;20104;-61
2022/01/12 05:27:12;;;;;;;72.22;19.63;;;;;;;;;;6210062;28;20560;-62
2022/01/12 05:30:13;;;;;;;45.65;15.10;;;;;;;;;;6212931;28;20424;-59
2022/01/12 05:33:14;;;;;;;53.53;16.85;;;;;;;;;;6214668;28;20050;-66
2022/01/12 05:36:17;;;;;;;51.05;16.90;;;;;;;;;;6213928;28;20058;-69
2022/01/12 05:39:18;;;;;;;64.50;18.85;;;;;;;;;;6212881;28;20053;-60
2022/01/12 05:42:19;;;;;;;41.10;15.27;;;;;;;;;;6213898;28;20060;-62
2022/01/12 05:45:21;;;;;;;48.13;15.98;;;;;;;;;;6214648;28;20676;-61
2022/01/12 05:51:23;;;;;;;50.72;15.85;;;;;;;;;;6216162;28;20054;-61
2022/01/12 05:54:24;;;;;;;39.65;13.82;;;;;;;;;;6216632;28;20477;-71
2022/01/12 05:57:26;;;;;;;34.70;12.98;;;;;;;;;;6213759;28;20060;-69
2022/01/12 06:00:28;;;;;;;39.50;13.38;;;;;;;;;;6212221;28;20041;-67
2022/01/12 06:03:29;;;;;;;47.88;15.77;;;;;;;;;;6213885;28;20082;-70
2022/01/12 06:06:29;;;;;;;46.83;16.33;;;;;;;;;;6216533;28;20058;-69
2022/01/12 06:09:30;;;;;;;56.08;18.38;;;;;;;;;;6213920;28;20082;-65
2022/01/12 06:12:31;;;;;;;47.90;18.38;;;;;;;;;;6216757;28;20092;-65
2022/01/12 06:15:31;;;;;;;44.75;17.23;;;;;;;;;;6212217;28;20058;-61
2022/01/12 06:18:32;;;;;;;41.28;14.65;;;;;;;;;;6212360;28;20045;-61
2022/01/12 06:21:33;;;;;;;47.78;16.05;;;;;;;;;;6214037;28;20072;-61
2022/01/12 06:24:34;;;;;;;46.13;16.30;;;;;;;;;;6213101;28;20120;-66
2022/01/12 06:27:35;;;;;;;41.05;15.70;;;;;;;;;;6212480;28;20046;-64
2022/01/12 06:33:55;;;;;;;50.90;19.00;;;;;;;;;;6217285;28;20058;-61
2022/01/12 06:36:55;;;;;;;59.95;21.48;;;;;;;;;;6217641;28;20057;-65
2022/01/12 06:39:56;;;;;;;63.42;22.08;;;;;;;;;;6216293;28;20073;-60
2022/01/12 06:42:57;;;;;;;70.10;24.35;;;;;;;;;;6217805;28;20038;-66
2022/01/12 06:45:57;;;;;;;66.35;23.20;;;;;;;;;;6218574;28;20125;-64
2022/01/12 06:48:58;;;;;;;66.38;23.35;;;;;;;;;;6207682;28;20489;-61
2022/01/12 06:52:02;;;;;;;51.88;19.00;;;;;;;;;;6196352;28;20351;-62
2022/01/12 06:55:03;;;;;;;47.45;19.95;;;;;;;;;;6199798;28;20576;-63
2022/01/12 06:58:04;;;;;;;52.22;19.75;;;;;;;;;;6200403;28;20072;-64
2022/01/12 07:01:05;;;;;;;62.40;22.67;;;;;;;;;;6194171;28;20042;-66
2022/01/12 07:04:05;;;;;;;60.03;22.65;;;;;;;;;;6204501;28;20061;-62
2022/01/12 07:07:06;;;;;;;46.55;16.45;;;;;;;;;;6215736;28;20053;-64
2022/01/12 07:10:07;;;;;;;51.80;18.38;;;;;;;;;;6217040;28;20060;-61
2022/01/12 07:13:11;;;;;;;51.87;18.07;;;;;;;;;;6214020;28;20070;-63
2022/01/12 07:16:12;;;;;;;54.83;22.42;;;;;;;;;;6203459;28;20432;-64
2022/01/12 07:19:13;;;;;;;55.40;19.63;;;;;;;;;;6204972;28;20061;-66
2022/01/12 07:22:14;;;;;;;39.72;15.43;;;;;;;;;;6193878;28;20137;-66
2022/01/12 07:25:14;;;;;;;44.38;16.85;;;;;;;;;;6195455;28;20394;-65
2022/01/12 07:28:15;;;;;;;44.88;16.83;;;;;;;;;;6193866;28;20452;-67
2022/01/12 07:31:16;;;;;;;50.53;19.17;;;;;;;;;;6193063;28;20077;-62
2022/01/12 07:34:17;;;;;;;47.55;18.95;;;;;;;;;;6206629;28;20046;-65
2022/01/12 07:37:18;;;;;;;56.40;20.77;;;;;;;;;;6217614;28;20053;-68
2022/01/12 07:40:19;;;;;;;54.75;21.40;;;;;;;;;;6215891;28;20037;-64
2022/01/12 07:43:19;;;;;;;65.20;24.95;;;;;;;;;;6215538;28;20073;-65
2022/01/12 07:46:20;;;;;;;75.07;25.90;;;;;;;;;;6217200;28;20053;-62
2022/01/12 07:49:21;;;;;;;57.90;21.30;;;;;;;;;;6213910;28;20088;-65
2022/01/12 07:52:22;;;;;;;51.50;19.08;;;;;;;;;;6217351;28;20129;-64
2022/01/12 07:55:24;;;;;;;79.43;29.95;;;;;;;;;;6212874;28;20050;-65
2022/01/12 07:58:24;;;;;;;63.65;23.70;;;;;;;;;;6212217;28;20943;-67
2022/01/12 08:01:26;;;;;;;66.75;24.02;;;;;;;;;;6216884;28;20547;-62
2022/01/12 08:04:26;;;;;;;62.67;24.15;;;;;;;;;;6210899;28;20065;-65
2022/01/12 08:07:27;;;;;;;44.67;17.42;;;;;;;;;;6216644;28;20108;-61
2022/01/12 08:10:27;;;;;;;46.20;17.38;;;;;;;;;;6209212;28;20145;-63
2022/01/12 08:13:28;;;;;;;49.55;18.70;;;;;;;;;;6213064;28;20052;-66
2022/01/12 08:16:29;;;;;;;37.00;15.20;;;;;;;;;;6212029;28;20420;-61
2022/01/12 08:19:34;;;;;;;35.38;14.98;;;;;;;;;;6209160;28;20855;-63
2022/01/12 08:22:34;;;;;;;37.92;15.07;;;;;;;;;;6211448;28;20208;-64
2022/01/12 08:25:39;;;;;;;42.10;16.92;;;;;;;;;;6209121;28;20140;-62
2022/01/12 08:28:40;;;;;;;36.70;15.30;;;;;;;;;;6209069;28;20053;-62
2022/01/12 08:31:44;;;;;;;34.50;13.90;;;;;;;;;;6211515;28;20034;-68
2022/01/12 08:34:45;;;;;;;;;;;;;;;;;;6211793;28;20463;-63
2022/01/12 08:37:46;;;;;;;27.23;11.77;;;;;;;;;;6211790;28;20077;-67
2022/01/12 08:40:47;;;;;;;39.17;13.30;;;;;;;;;;6212707;28;20034;-66
2022/01/12 08:43:48;;;;;;;54.13;19.02;;;;;;;;;;6212446;28;20065;-64
2022/01/12 08:46:48;;;;;;;55.65;17.85;;;;;;;;;;6215449;28;20060;-62
2022/01/12 08:49:49;;;;;;;42.25;15.93;;;;;;;;;;6213165;28;20554;-66
2022/01/12 08:52:50;;;;;;;42.10;15.07;;;;;;;;;;6215362;28;20415;-66
2022/01/12 08:55:51;;;;;;;41.75;16.25;;;;;;;;;;6214867;28;20070;-65
2022/01/12 08:58:52;;;;;;;36.70;14.63;;;;;;;;;;6215055;28;20045;-62
2022/01/12 09:01:53;;;;;;;47.95;14.98;;;;;;;;;;6212765;28;20465;-66
2022/01/12 09:04:53;;;;;;;36.45;13.82;;;;;;;;;;6214611;28;20050;-62
2022/01/12 09:07:55;;;;;;;42.40;14.50;;;;;;;;;;6212900;28;20042;-64
2022/01/12 09:10:56;;;;;;;36.45;14.63;;;;;;;;;;6211207;28;20041;-62
2022/01/12 09:13:57;;;;;;;45.42;15.60;;;;;;;;;;6210337;28;20526;-67
2022/01/12 09:16:58;;;;;;;50.08;15.02;;;;;;;;;;6211145;28;20604;-66
2022/01/12 09:20:00;;;;;;;40.78;15.43;;;;;;;;;;6211095;28;20527;-66
2022/01/12 09:23:00;;;;;;;32.22;12.18;;;;;;;;;;6210074;28;22092;-64
2022/01/12 09:26:03;;;;;;;41.05;15.30;;;;;;;;;;6213514;28;20049;-62
2022/01/12 09:29:04;;;;;;;39.03;14.27;;;;;;;;;;6203333;28;20047;-63
2022/01/12 09:32:05;;;;;;;35.08;13.38;;;;;;;;;;6209714;28;20128;-65
2022/01/12 09:35:07;;;;;;;39.85;13.95;;;;;;;;;;6209542;28;20208;-64
2022/01/12 09:38:08;;;;;;;33.20;13.73;;;;;;;;;;6207999;28;20077;-62
2022/01/12 09:41:09;;;;;;;37.95;13.60;;;;;;;;;;6209908;28;20493;-63
2022/01/12 09:44:10;;;;;;;34.47;13.80;;;;;;;;;;6212706;28;20100;-66
2022/01/12 09:47:10;;;;;;;33.08;11.98;;;;;;;;;;6211394;28;20585;-62
2022/01/12 09:50:13;;;;;;;39.38;13.95;;;;;;;;;;6212797;28;20046;-66
2022/01/12 09:53:13;;;;;;;30.42;13.52;;;;;;;;;;6209957;28;20046;-62
2022/01/12 09:56:17;;;;;;;28.50;12.05;;;;;;;;;;6210706;28;20477;-63
2022/01/12 09:59:17;;;;;;;29.90;13.05;;;;;;;;;;6206372;28;20088;-66
2022/01/12 10:02:20;;;;;;;33.55;14.07;;;;;;;;;;6210364;28;20124;-62
2022/01/12 10:05:31;;;;;;;37.47;12.98;;;;;;;;;;6209017;28;20049;-65
2022/01/12 10:08:34;;;;;;;40.57;14.47;;;;;;;;;;6208870;28;20077;-62
2022/01/12 10:11:47;;;;;;;47.42;17.30;;;;;;;;;;6210887;28;20502;-61
2022/01/12 10:14:55;;;;;;;51.80;19.15;;;;;;;;;;6211397;28;20089;-62
2022/01/12 10:18:01;;;;;;;42.08;16.15;;;;;;;;;;6214818;28;20045;-65
2022/01/12 10:21:02;;;;;;;37.03;14.25;;;;;;;;;;6216273;28;20073;-62
2022/01/12 10:24:10;;;;;;;31.92;12.20;;;;;;;;;;6217182;28;20038;-62
2022/01/12 10:27:12;;;;;;;34.40;13.73;;;;;;;;;;6218020;28;20092;-64
2022/01/12 10:30:26;;;;;;;28.52;11.75;;;;;;;;;;6217222;28;20064;-63
2022/01/12 10:33:33;;;;;;;38.28;15.13;;;;;;;;;;6217362;28;20116;-63
2022/01/12 10:36:41;;;;;;;39.47;15.05;;;;;;;;;;6218364;28;20052;-62
2022/01/12 10:39:45;;;;;;;37.67;14.32;;;;;;;;;;6215693;28;20046;-62
2022/01/12 10:42:45;;;;;;;31.48;12.32;;;;;;;;;;6217465;28;20041;-62
2022/01/12 10:45:49;;;;;;;33.95;13.55;;;;;;;;;;6216460;28;20049;-62
2022/01/12 10:48:52;;;;;;;40.55;14.68;;;;;;;;;;6215590;28;20068;-61
2022/01/12 10:51:54;;;;;;;38.70;15.15;;;;;;;;;;6217940;28;20428;-63
2022/01/12 10:54:58;;;;;;;40.90;15.38;;;;;;;;;;6215749;28;20042;-62
2022/01/12 10:58:00;;;;;;;34.97;12.88;;;;;;;;;;6215183;28;20077;-61
2022/01/12 11:01:01;;;;;;;31.00;12.53;;;;;;;;;;6218443;28;20054;-64
2022/01/12 11:04:01;;;;;;;29.92;12.48;;;;;;;;;;6213052;28;20082;-66
2022/01/12 11:07:02;;;;;;;27.50;11.90;;;;;;;;;;6214464;28;20050;-66
2022/01/12 11:10:07;;;;;;;26.73;11.85;;;;;;;;;;6213338;28;20064;-62
2022/01/12 11:13:07;;;;;;;32.03;13.02;;;;;;;;;;6212532;28;20994;-62
2022/01/12 11:16:08;;;;;;;29.67;12.07;;;;;;;;;;6212968;28;20046;-68
2022/01/12 11:19:09;;;;;;;29.75;12.07;;;;;;;;;;6214737;28;20136;-64
2022/01/12 11:22:28;;;;;;;27.48;13.35;;;;;;;;;;6216575;28;20061;-60
2022/01/12 11:25:29;;;;;;;35.20;13.52;;;;;;;;;;6213297;28;20042;-68
2022/01/12 11:28:38;;;;;;;30.48;12.15;;;;;;;;;;6214427;28;20065;-61
2022/01/12 11:31:40;;;;;;;37.08;14.65;;;;;;;;;;6215494;28;20038;-60
2022/01/12 11:34:41;;;;;;;54.80;19.23;;;;;;;;;;6211338;28;20048;-65
2022/01/12 11:37:48;;;;;;;25.52;11.63;;;;;;;;;;6212847;28;20060;-61
2022/01/12 11:40:50;;;;;;;30.30;12.20;;;;;;;;;;6214330;28;20068;-60
2022/01/12 11:44:09;;;;;;;31.83;12.88;;;;;;;;;;6204978;28;20564;-61
2022/01/12 11:47:18;;;;;;;35.13;12.93;;;;;;;;;;6212298;28;20135;-60
2022/01/12 11:50:19;;;;;;;28.15;11.68;;;;;;;;;;6210619;28;20050;-61
2022/01/12 11:53:21;;;;;;;32.10;13.77;;;;;;;;;;6211892;28;20049;-62
2022/01/12 11:56:26;;;;;;;34.05;12.02;;;;;;;;;;6214014;28;20057;-61
2022/01/12 11:59:29;;;;;;;30.65;12.07;;;;;;;;;;6212421;28;20485;-61
2022/01/12 12:02:36;;;;;;;30.42;11.90;;;;;;;;;;6216566;28;20046;-63
2022/01/12 12:05:39;;;;;;;25.65;11.73;;;;;;;;;;6214747;28;20050;-63
2022/01/12 12:08:57;;;;;;;29.15;11.80;;;;;;;;;;6213882;28;20046;-66
2022/01/12 12:11:58;;;;;;;30.35;12.45;;;;;;;;;;6216619;28;20042;-64
2022/01/12 12:15:01;;;;;;;30.38;12.63;;;;;;;;;;6213622;28;20054;-64
2022/01/12 12:18:06;;;;;;;30.77;12.35;;;;;;;;;;6213858;28;20050;-62
2022/01/12 12:21:06;;;;;;;32.97;13.65;;;;;;;;;;6215034;28;20061;-65
2022/01/12 12:24:16;;;;;;;35.53;13.50;;;;;;;;;;6213923;28;20417;-60
2022/01/12 12:27:19;;;;;;;29.38;12.82;;;;;;;;;;6214831;28;20045;-64
2022/01/12 12:30:22;;;;;;;36.28;16.38;;;;;;;;;;6211402;28;20050;-60
2022/01/12 12:33:23;;;;;;;33.70;14.82;;;;;;;;;;6210063;28;20386;-64
2022/01/12 12:36:24;;;;;;;29.15;12.68;;;;;;;;;;6211939;28;20468;-63
2022/01/12 12:39:29;;;;;;;37.75;12.70;;;;;;;;;;6210113;28;20048;-67
2022/01/12 12:42:30;;;;;;;33.08;12.48;;;;;;;;;;6209888;28;20041;-62
2022/01/12 12:45:42;;;;;;;31.83;12.27;;;;;;;;;;6208419;28;20498;-61
2022/01/12 12:48:45;;;;;;;34.13;12.52;;;;;;;;;;6211618;28;20078;-62
2022/01/12 12:51:46;;;;;;;29.70;12.80;;;;;;;;;;6214761;28;20046;-67
2022/01/12 12:54:47;;;;;;;38.15;13.32;;;;;;;;;;6204017;28;20096;-67
2022/01/12 12:57:50;;;;;;;34.40;11.60;;;;;;;;;;6215353;28;20128;-61
2022/01/12 13:00:51;;;;;;;29.48;12.15;;;;;;;;;;6208141;28;20085;-60
2022/01/12 13:04:00;;;;;;;33.35;14.65;;;;;;;;;;6210697;28;20049;-61
2022/01/12 13:07:14;;;;;;;31.42;13.07;;;;;;;;;;6211213;28;20551;-66
2022/01/12 13:10:21;;;;;;;34.03;12.90;;;;;;;;;;6210345;28;20420;-60
2022/01/12 13:13:22;;;;;;;31.70;12.95;;;;;;;;;;6206762;28;20077;-61
2022/01/12 13:16:25;;;;;;;33.58;14.18;;;;;;;;;;6209648;28;20049;-60
2022/01/12 13:23:03;;;;;;;33.33;14.68;;;;;;;;;;6199330;28;20516;-65
2022/01/12 13:26:05;;;;;;;56.90;23.58;;;;;;;;;;6210758;28;20070;-60
2022/01/12 13:29:08;;;;;;;32.25;14.93;;;;;;;;;;6210970;28;20519;-61
2022/01/12 13:32:12;;;;;;;;;;;;;;;;;;6212815;28;20042;-66
2022/01/12 13:35:12;;;;;;;30.15;14.35;;;;;;;;;;6212403;28;19929;-62
2022/01/12 13:38:24;;;;;;;37.20;16.38;;;;;;;;;;6209637;28;20382;-63
2022/01/12 13:41:30;;;;;;;35.53;16.77;;;;;;;;;;6210398;28;20046;-68
2022/01/12 13:44:30;;;;;;;35.50;13.70;;;;;;;;;;6209512;28;20177;-63
2022/01/12 13:47:35;;;;;;;34.03;15.10;;;;;;;;;;6212079;28;20444;-65
2022/01/12 13:50:36;;;;;;;31.67;13.70;;;;;;;;;;6217699;28;20386;-62
2022/01/12 13:53:39;;;;;;;35.50;15.65;;;;;;;;;;6215660;28;20041;-64
2022/01/12 13:56:44;;;;;;;35.10;16.10;;;;;;;;;;6212417;28;20417;-66
2022/01/12 13:59:52;;;;;;;40.13;18.83;;;;;;;;;;6214008;28;20037;-62
2022/01/12 14:02:53;;;;;;;38.05;18.33;;;;;;;;;;6213225;28;20140;-63
2022/01/12 14:05:59;;;;;;;38.35;19.02;;;;;;;;;;6186326;28;20042;-65
2022/01/12 14:09:00;;;;;;;35.83;13.10;;;;;;;;;;6191218;28;20144;-63
2022/01/12 14:12:17;;;;;;;32.45;12.95;;;;;;;;;;6196656;28;21246;-62
2022/01/12 14:15:23;;;;;;;29.23;12.55;;;;;;;;;;6194479;28;20089;-64
2022/01/12 14:18:23;;;;;;;31.98;13.18;;;;;;;;;;6197957;28;20069;-64
2022/01/12 14:21:25;;;;;;;29.83;11.02;;;;;;;;;;6189648;28;20458;-62
2022/01/12 14:24:25;;;;;;;33.72;12.95;;;;;;;;;;6190904;28;20046;-64
2022/01/12 14:27:48;;;;;;;35.33;13.15;;;;;;;;;;6193936;28;20054;-62
2022/01/12 14:30:49;;;;;;;35.15;14.10;;;;;;;;;;6194594;28;20042;-62
2022/01/12 14:33:51;;;;;;;35.25;13.90;;;;;;;;;;6194214;28;20371;-63
2022/01/12 14:36:51;;;;;;;42.23;14.70;;;;;;;;;;6191021;28;20108;-62
2022/01/12 14:39:52;;;;;;;39.42;16.05;;;;;;;;;;6194736;28;20053;-65
2022/01/12 14:42:59;;;;;;;47.15;19.38;;;;;;;;;;6192825;28;20061;-65
2022/01/12 14:46:00;;;;;;;38.80;16.10;;;;;;;;;;6192534;28;20134;-65
2022/01/12 14:49:00;;;;;;;38.60;16.40;;;;;;;;;;6194011;28;20050;-67
2022/01/12 14:52:02;;;;;;;43.50;16.05;;;;;;;;;;6194363;28;21253;-64
2022/01/12 14:55:05;;;;;;;40.05;15.45;;;;;;;;;;6195171;28;20050;-66
2022/01/12 14:58:05;;;;;;;39.40;16.55;;;;;;;;;;6194271;28;20084;-67
2022/01/12 15:01:06;;;;;;;43.38;16.00;;;;;;;;;;6193625;28;20056;-64
2022/01/12 15:04:07;;;;;;;41.40;14.95;;;;;;;;;;6193322;28;20038;-66
2022/01/12 15:07:07;;;;;;;44.10;16.52;;;;;;;;;;6192599;28;20054;-67
2022/01/12 15:10:08;;;;;;;38.17;16.65;;;;;;;;;;6191287;28;20056;-66
2022/01/12 15:16:17;;;;;;;46.28;17.92;;;;;;;;;;6189998;28;20077;-68
2022/01/12 15:19:18;;;;;;;52.60;22.13;;;;;;;;;;6190971;28;20058;-66
2022/01/12 15:22:19;;;;;;;74.18;30.98;;;;;;;;;;6195132;28;20050;-65
2022/01/12 15:25:19;;;;;;;56.20;22.33;;;;;;;;;;6194283;28;20996;-65
2022/01/12 15:28:20;;;;;;;54.63;22.38;;;;;;;;;;6191379;28;20057;-66
2022/01/12 15:31:21;;;;;;;59.28;24.33;;;;;;;;;;6194285;28;20083;-65
2022/01/12 15:34:22;;;;;;;66.00;24.23;;;;;;;;;;6189209;28;20130;-66
2022/01/12 15:37:23;;;;;;;49.92;20.10;;;;;;;;;;6193988;28;20404;-66
2022/01/12 15:40:24;;;;;;;42.50;16.50;;;;;;;;;;6191698;28;20133;-65
2022/01/12 15:43:25;;;;;;;42.97;16.85;;;;;;;;;;6195559;28;20041;-66
2022/01/12 15:46:26;;;;;;;40.78;16.52;;;;;;;;;;6191198;28;20046;-68
2022/01/12 15:49:29;;;;;;;45.75;19.52;;;;;;;;;;6192264;28;20558;-64
2022/01/12 15:52:29;;;;;;;46.55;19.55;;;;;;;;;;6193065;28;20053;-68
2022/01/12 15:55:31;;;;;;;41.58;17.10;;;;;;;;;;6191204;28;20091;-69
2022/01/12 15:58:32;;;;;;;42.58;17.52;;;;;;;;;;6190248;28;20050;-65
2022/01/12 16:01:33;;;;;;;42.42;16.80;;;;;;;;;;6195450;28;20100;-66
2022/01/12 16:04:34;;;;;;;40.58;16.55;;;;;;;;;;6192576;28;20042;-68
2022/01/12 16:07:34;;;;;;;43.72;17.67;;;;;;;;;;6192347;28;20386;-65
2022/01/12 16:10:37;;;;;;;39.78;16.27;;;;;;;;;;6194085;28;20099;-64
2022/01/12 16:13:39;;;;;;;43.78;17.90;;;;;;;;;;6194216;28;20058;-68
2022/01/12 16:16:41;;;;;;;;;;;;;;;;;;6192741;28;20050;-63
2022/01/12 16:19:43;;;;;;;98.53;38.00;;;;;;;;;;6192371;28;19929;-66
2022/01/12 16:22:44;;;;;;;92.57;34.25;;;;;;;;;;6194433;28;20097;-68
2022/01/12 16:25:45;;;;;;;59.58;28.48;;;;;;;;;;6194526;28;20046;-68
2022/01/12 16:28:47;;;;;;;49.13;19.67;;;;;;;;;;6189439;28;20840;-66
2022/01/12 16:31:48;;;;;;;46.33;18.08;;;;;;;;;;6192234;28;20769;-66
2022/01/12 16:34:49;;;;;;;46.00;19.70;;;;;;;;;;6193193;28;20149;-71
2022/01/12 16:37:49;;;;;;;46.45;19.65;;;;;;;;;;6197002;28;20072;-66
2022/01/12 16:40:53;;;;;;;50.10;20.70;;;;;;;;;;6194937;28;20050;-69
2022/01/12 16:43:55;;;;;;;59.25;24.42;;;;;;;;;;6202437;28;20048;-65
2022/01/12 16:46:56;;;;;;;62.50;25.05;;;;;;;;;;6186339;28;20136;-68
2022/01/12 16:49:56;;;;;;;64.25;25.77;;;;;;;;;;6192212;28;20058;-69
2022/01/12 16:52:57;;;;;;;119.65;44.88;;;;;;;;;;6196242;28;20554;-67
2022/01/12 16:55:58;;;;;;;268.88;102.57;;;;;;;;;;6190582;28;21362;-69
2022/01/12 16:59:00;;;;;;;170.65;66.45;;;;;;;;;;6196944;28;20046;-67
2022/01/12 17:02:00;;;;;;;185.27;75.60;;;;;;;;;;6195344;28;20569;-68
2022/01/12 17:05:02;;;;;;;192.35;74.90;;;;;;;;;;6201318;28;20061;-71
2022/01/12 17:08:03;;;;;;;296.98;110.72;;;;;;;;;;6188515;28;20607;-70
2022/01/12 17:11:03;;;;;;;306.98;110.65;;;;;;;;;;6195695;28;20057;-69
2022/01/12 17:14:04;;;;;;;241.68;83.60;;;;;;;;;;6189351;28;20054;-64
2022/01/12 17:17:06;;;;;;;110.22;44.15;;;;;;;;;;6186364;28;20077;-70
2022/01/12 17:20:07;;;;;;;77.22;32.33;;;;;;;;;;6192890;28;20624;-68
2022/01/12 17:23:12;;;;;;;62.40;23.73;;;;;;;;;;6189710;28;20046;-69
2022/01/12 17:26:22;;;;;;;57.78;20.40;;;;;;;;;;6198966;28;20058;-70
2022/01/12 17:29:24;;;;;;;56.42;22.63;;;;;;;;;;6197349;28;20078;-68
2022/01/12 17:32:27;;;;;;;52.95;21.40;;;;;;;;;;6194012;28;20140;-69
2022/01/12 17:35:28;;;;;;;56.95;20.13;;;;;;;;;;6197029;28;20061;-69
2022/01/12 17:38:28;;;;;;;59.40;22.42;;;;;;;;;;6192813;28;20474;-67
2022/01/12 17:41:31;;;;;;;51.63;21.65;;;;;;;;;;6195059;28;20101;-68
2022/01/12 17:44:33;;;;;;;49.58;21.20;;;;;;;;;;6194243;28;20050;-65
2022/01/12 17:47:34;;;;;;;50.67;20.77;;;;;;;;;;6195302;28;20393;-70
2022/01/12 17:50:36;;;;;;;56.17;23.33;;;;;;;;;;6194375;28;20077;-69
2022/01/12 17:53:37;;;;;;;70.75;34.65;;;;;;;;;;6196337;28;20101;-68
2022/01/12 17:56:42;;;;;;;51.88;19.90;;;;;;;;;;6195387;28;20485;-70
2022/01/12 17:59:43;;;;;;;51.05;21.35;;;;;;;;;;6201377;28;20062;-67
2022/01/12 18:02:43;;;;;;;53.22;20.38;;;;;;;;;;6196903;28;20544;-70
2022/01/12 18:05:44;;;;;;;50.88;20.35;;;;;;;;;;6193726;28;20084;-63
2022/01/12 18:08:45;;;;;;;48.75;19.58;;;;;;;;;;6197781;28;20063;-67
2022/01/12 18:11:46;;;;;;;55.05;21.05;;;;;;;;;;6202161;28;20039;-72
2022/01/12 18:14:52;;;;;;;47.75;20.52;;;;;;;;;;6197146;28;20053;-64
2022/01/12 18:17:54;;;;;;;66.57;25.85;;;;;;;;;;6193051;28;20050;-69
2022/01/12 18:20:55;;;;;;;58.70;23.70;;;;;;;;;;6196170;28;20531;-70
2022/01/12 18:23:56;;;;;;;61.63;28.88;;;;;;;;;;6195728;28;20041;-64
2022/01/12 18:26:57;;;;;;;59.25;25.20;;;;;;;;;;6192339;28;20050;-68
2022/01/12 18:29:57;;;;;;;60.50;22.92;;;;;;;;;;6195229;28;20180;-69
2022/01/12 18:32:58;;;;;;;60.58;23.48;;;;;;;;;;6198779;28;20064;-69
2022/01/12 18:36:00;;;;;;;59.40;21.80;;;;;;;;;;6196503;28;20566;-69
2022/01/12 18:39:10;;;;;;;63.40;23.10;;;;;;;;;;6196330;28;20940;-65
2022/01/12 18:42:10;;;;;;;64.45;22.33;;;;;;;;;;6200589;28;20048;-69
2022/01/12 18:45:12;;;;;;;52.25;21.77;;;;;;;;;;6197438;28;20046;-63
2022/01/12 18:48:13;;;;;;;63.33;25.02;;;;;;;;;;6198762;28;20065;-67
2022/01/12 18:51:13;;;;;;;65.65;23.88;;;;;;;;;;6195851;28;20077;-67
2022/01/12 18:54:15;;;;;;;58.80;21.67;;;;;;;;;;6192954;28;20413;-67
2022/01/12 18:57:15;;;;;;;60.63;23.35;;;;;;;;;;6193816;28;20073;-69
2022/01/12 19:00:16;;;;;;;59.97;23.98;;;;;;;;;;6196322;28;20039;-67
2022/01/12 19:03:17;;;;;;;63.20;24.92;;;;;;;;;;6195371;28;20109;-67
2022/01/12 19:06:18;;;;;;;76.35;24.90;;;;;;;;;;6200067;28;20054;-63
2022/01/12 19:09:18;;;;;;;60.03;24.85;;;;;;;;;;6201086;28;20900;-70
2022/01/12 19:12:25;;;;;;;59.92;23.40;;;;;;;;;;6200290;28;20054;-67